createdAt,value
2023-03-29T00:00:38.377Z,86.50
2023-03-29T00:01:42.534Z,86.40
2023-03-29T00:02:48.589Z,86.80
2023-03-29T00:03:51.931Z,86.80
2023-03-29T00:04:55.487Z,86.90
2023-03-29T00:06:03.070Z,86.80
2023-03-29T00:07:07.227Z,87.00
2023-03-29T00:08:14.498Z,86.80
2023-03-29T00:09:19.952Z,86.40
2023-03-29T00:10:24.162Z,86.70
2023-03-29T00:11:28.299Z,86.80
2023-03-29T00:12:31.299Z,86.80
2023-03-29T00:13:34.918Z,86.80
2023-03-29T00:14:37.380Z,86.80
2023-03-29T00:15:42.472Z,86.70
2023-03-29T00:16:47.032Z,86.60
2023-03-29T00:17:51.441Z,86.80
2023-03-29T00:18:53.822Z,86.40
2023-03-29T00:19:57.304Z,86.30
2023-03-29T00:21:00.605Z,86.60
2023-03-29T00:22:05.938Z,86.60
2023-03-29T00:23:08.518Z,86.90
2023-03-29T00:24:12.117Z,87.10
2023-03-29T00:25:16.410Z,87.20
2023-03-29T00:26:19.965Z,87.10
2023-03-29T00:27:22.862Z,87.10
2023-03-29T00:28:26.590Z,86.90
2023-03-29T00:29:29.538Z,86.70
2023-03-29T00:30:33.140Z,86.90
2023-03-29T00:31:36.124Z,86.80
2023-03-29T00:32:39.969Z,86.60
2023-03-29T00:33:42.914Z,86.20
2023-03-29T00:34:50.750Z,86.70
2023-03-29T00:35:54.442Z,86.60
2023-03-29T00:36:58.225Z,86.80
2023-03-29T00:38:00.735Z,86.90
2023-03-29T00:39:04.618Z,86.90
2023-03-29T00:40:11.759Z,86.80
2023-03-29T00:41:19.286Z,86.90
2023-03-29T00:42:21.836Z,86.90
2023-03-29T00:43:25.484Z,86.90
2023-03-29T00:45:04.325Z,86.70
2023-03-29T00:46:06.999Z,86.40
2023-03-29T00:47:10.480Z,86.80
2023-03-29T00:48:18.183Z,87.00
2023-03-29T00:49:21.163Z,86.90
2023-03-29T00:50:30.895Z,86.80
2023-03-29T00:51:35.844Z,86.70
2023-03-29T00:52:41.983Z,87.00
2023-03-29T00:53:50.034Z,86.90
2023-03-29T00:54:57.568Z,86.60
2023-03-29T00:56:07.069Z,86.80
2023-03-29T00:57:12.021Z,86.80
2023-03-29T00:58:21.116Z,86.80
2023-03-29T00:59:25.824Z,86.80
2023-03-29T01:00:35.923Z,86.80
2023-03-29T01:01:50.515Z,86.80
2023-03-29T01:02:55.816Z,86.60
2023-03-29T01:04:05.894Z,86.70
2023-03-29T01:05:15.258Z,86.90
2023-03-29T01:06:22.946Z,86.80
2023-03-29T01:07:35.234Z,86.30
2023-03-29T01:08:44.304Z,86.40
2023-03-29T01:09:54.320Z,86.70
2023-03-29T01:11:04.582Z,86.20
2023-03-29T01:12:17.144Z,86.00
2023-03-29T01:13:29.729Z,86.30
2023-03-29T01:14:38.710Z,86.20
2023-03-29T01:15:45.982Z,85.70
2023-03-29T01:16:49.196Z,86.00
2023-03-29T01:17:55.606Z,86.20
2023-03-29T01:18:58.463Z,86.30
2023-03-29T01:20:11.343Z,86.40
2023-03-29T01:21:23.608Z,86.40
2023-03-29T01:22:38.615Z,86.60
2023-03-29T01:24:08.890Z,86.70
2023-03-29T01:25:26.249Z,86.90
2023-03-29T01:26:40.083Z,86.90
2023-03-29T01:27:54.219Z,86.90
2023-03-29T01:29:02.521Z,86.50
2023-03-29T01:30:12.807Z,86.60
2023-03-29T01:31:22.615Z,86.70
2023-03-29T01:32:36.592Z,86.80
2023-03-29T01:33:44.823Z,86.20
2023-03-29T01:34:56.612Z,86.50
2023-03-29T01:36:08.163Z,86.70
2023-03-29T01:37:19.475Z,86.70
2023-03-29T01:38:27.869Z,86.90
2023-03-29T01:39:31.595Z,86.90
2023-03-29T01:40:34.411Z,87.00
2023-03-29T01:41:49.694Z,86.70
2023-03-29T01:43:02.398Z,86.90
2023-03-29T01:44:11.356Z,86.70
2023-03-29T01:45:23.087Z,85.70
2023-03-29T01:46:34.003Z,86.20
2023-03-29T01:47:46.739Z,86.60
2023-03-29T01:48:56.128Z,86.40
2023-03-29T01:50:12.805Z,86.60
2023-03-29T01:51:23.858Z,86.50
2023-03-29T01:52:33.579Z,86.50
2023-03-29T01:53:43.542Z,86.60
2023-03-29T01:54:50.395Z,86.70
2023-03-29T01:55:58.427Z,86.90
2023-03-29T01:57:03.888Z,86.80
2023-03-29T01:58:13.254Z,86.90
2023-03-29T01:59:20.598Z,86.90
2023-03-29T02:00:27.744Z,87.10
2023-03-29T02:01:38.648Z,86.90
2023-03-29T02:02:48.085Z,86.60
2023-03-29T02:03:56.256Z,86.80
2023-03-29T02:05:00.376Z,87.00
2023-03-29T02:06:05.008Z,87.10
2023-03-29T02:07:08.851Z,87.20
2023-03-29T02:08:16.144Z,87.30
2023-03-29T02:09:18.870Z,87.30
2023-03-29T02:10:24.270Z,87.30
2023-03-29T02:11:29.277Z,87.30
2023-03-29T02:12:32.844Z,87.30
2023-03-29T02:13:38.966Z,87.30
2023-03-29T02:14:42.461Z,87.30
2023-03-29T02:15:45.094Z,87.40
2023-03-29T02:16:49.672Z,87.40
2023-03-29T02:17:52.902Z,87.40
2023-03-29T02:18:58.816Z,87.40
2023-03-29T02:20:14.402Z,87.40
2023-03-29T02:21:25.169Z,87.40
2023-03-29T02:22:33.423Z,87.40
2023-03-29T02:23:42.103Z,87.50
2023-03-29T02:24:47.015Z,87.40
2023-03-29T02:25:53.596Z,87.50
2023-03-29T02:26:57.667Z,87.40
2023-03-29T02:28:02.404Z,87.50
2023-03-29T02:29:07.627Z,87.40
2023-03-29T02:30:14.531Z,87.30
2023-03-29T02:31:24.218Z,87.40
2023-03-29T02:32:36.506Z,87.40
2023-03-29T02:33:46.694Z,87.50
2023-03-29T02:34:58.686Z,87.50
2023-03-29T02:36:04.757Z,87.40
2023-03-29T02:37:15.685Z,87.20
2023-03-29T02:38:18.801Z,87.40
2023-03-29T02:39:25.434Z,87.20
2023-03-29T02:40:28.494Z,87.00
2023-03-29T02:41:32.513Z,87.10
2023-03-29T02:42:36.948Z,87.30
2023-03-29T02:43:42.137Z,87.30
2023-03-29T02:44:49.533Z,87.30
2023-03-29T02:45:54.106Z,87.50
2023-03-29T02:47:00.632Z,87.50
2023-03-29T02:48:09.060Z,87.40
2023-03-29T02:49:12.196Z,87.30
2023-03-29T02:50:16.162Z,87.50
2023-03-29T02:51:23.807Z,87.50
2023-03-29T02:52:35.218Z,87.50
2023-03-29T02:53:43.656Z,87.60
2023-03-29T02:54:50.443Z,87.60
2023-03-29T02:55:53.913Z,87.50
2023-03-29T02:57:00.664Z,87.60
2023-03-29T02:58:08.128Z,87.60
2023-03-29T02:59:14.314Z,87.60
2023-03-29T03:00:19.935Z,87.70
2023-03-29T03:01:23.690Z,87.60
2023-03-29T03:02:27.890Z,87.60
2023-03-29T03:03:32.914Z,87.60
2023-03-29T03:04:37.707Z,87.40
2023-03-29T03:05:41.160Z,86.60
2023-03-29T03:06:43.584Z,86.80
2023-03-29T03:07:47.550Z,86.80
2023-03-29T03:08:50.065Z,87.20
2023-03-29T03:09:53.572Z,87.20
2023-03-29T03:10:56.351Z,87.20
2023-03-29T03:11:59.716Z,87.20
2023-03-29T03:13:03.551Z,87.10
2023-03-29T03:14:09.205Z,87.20
2023-03-29T03:15:12.382Z,87.30
2023-03-29T03:16:18.335Z,87.40
2023-03-29T03:17:20.845Z,87.40
2023-03-29T03:18:24.684Z,86.80
2023-03-29T03:19:27.372Z,87.00
2023-03-29T03:20:31.292Z,87.20
2023-03-29T03:21:35.169Z,86.10
2023-03-29T03:22:39.380Z,86.30
2023-03-29T03:23:41.980Z,86.80
2023-03-29T03:24:46.187Z,87.10
2023-03-29T03:25:49.257Z,87.10
2023-03-29T03:26:52.677Z,87.20
2023-03-29T03:27:55.143Z,87.30
2023-03-29T03:29:01.327Z,87.40
2023-03-29T03:30:25.487Z,87.30
2023-03-29T03:31:44.898Z,87.40
2023-03-29T03:33:09.107Z,87.00
2023-03-29T03:34:43.702Z,87.30
2023-03-29T03:35:48.246Z,87.50
2023-03-29T03:36:54.586Z,87.50
2023-03-29T03:37:58.146Z,87.50
2023-03-29T03:39:01.633Z,87.50
2023-03-29T03:40:11.729Z,87.50
2023-03-29T03:41:14.557Z,87.50
2023-03-29T03:42:17.946Z,87.40
2023-03-29T03:43:21.886Z,87.40
2023-03-29T03:44:26.714Z,87.40
2023-03-29T03:45:46.403Z,87.40
2023-03-29T03:46:54.360Z,87.40
2023-03-29T03:47:57.048Z,87.40
2023-03-29T03:49:22.904Z,87.40
2023-03-29T03:50:25.794Z,87.50
2023-03-29T03:51:29.293Z,87.50
2023-03-29T03:52:31.985Z,87.50
2023-03-29T03:53:35.569Z,87.50
2023-03-29T03:54:50.991Z,87.50
2023-03-29T03:56:20.508Z,87.50
2023-03-29T03:57:48.060Z,87.30
2023-03-29T03:58:53.544Z,87.60
2023-03-29T03:59:57.580Z,87.60
2023-03-29T04:01:04.435Z,87.60
2023-03-29T04:02:20.294Z,87.60
2023-03-29T04:03:24.133Z,87.60
2023-03-29T04:04:28.707Z,87.60
2023-03-29T04:06:00.502Z,87.60
2023-03-29T04:07:06.983Z,87.60
2023-03-29T04:08:10.702Z,87.80
2023-03-29T04:09:35.490Z,87.60
2023-03-29T04:11:01.300Z,87.60
2023-03-29T04:12:11.842Z,87.60
2023-03-29T04:13:17.195Z,87.40
2023-03-29T04:14:47.484Z,87.50
2023-03-29T04:15:58.740Z,87.60
2023-03-29T04:17:04.046Z,87.60
2023-03-29T04:18:23.917Z,87.60
2023-03-29T04:19:31.095Z,87.80
2023-03-29T04:20:33.703Z,87.60
2023-03-29T04:21:37.755Z,87.60
2023-03-29T04:22:41.295Z,87.60
2023-03-29T04:23:46.594Z,87.60
2023-03-29T04:24:49.523Z,87.80
2023-03-29T04:26:17.883Z,87.50
2023-03-29T04:27:23.516Z,87.50
2023-03-29T04:28:27.151Z,87.60
2023-03-29T04:30:11.290Z,87.80
2023-03-29T04:31:37.943Z,88.00
2023-03-29T04:33:01.923Z,87.80
2023-03-29T04:34:06.230Z,87.80
2023-03-29T04:35:11.031Z,88.00
2023-03-29T04:36:16.136Z,88.00
2023-03-29T04:37:22.171Z,87.80
2023-03-29T04:38:28.439Z,87.80
2023-03-29T04:39:32.167Z,88.00
2023-03-29T04:40:36.455Z,87.80
2023-03-29T04:41:56.281Z,88.00
2023-03-29T04:43:03.843Z,88.00
2023-03-29T04:44:06.994Z,88.00
2023-03-29T04:45:13.927Z,88.00
2023-03-29T04:46:34.859Z,88.10
2023-03-29T04:48:00.616Z,88.10
2023-03-29T04:49:03.807Z,88.20
2023-03-29T04:50:14.114Z,88.30
2023-03-29T04:51:22.058Z,88.20
2023-03-29T04:52:32.957Z,88.30
2023-03-29T04:53:36.816Z,88.30
2023-03-29T04:54:40.736Z,87.80
2023-03-29T04:55:55.637Z,88.00
2023-03-29T04:57:19.322Z,88.20
2023-03-29T04:58:52.155Z,88.30
2023-03-29T04:59:56.887Z,88.10
2023-03-29T05:01:26.307Z,88.10
2023-03-29T05:02:33.407Z,87.80
2023-03-29T05:03:37.352Z,88.00
2023-03-29T05:04:49.647Z,88.00
2023-03-29T05:05:54.766Z,88.00
2023-03-29T05:06:58.573Z,88.10
2023-03-29T05:08:01.661Z,88.10
2023-03-29T05:09:13.790Z,88.10
2023-03-29T05:10:25.808Z,88.10
2023-03-29T05:11:29.338Z,88.10
2023-03-29T05:12:33.174Z,88.20
2023-03-29T05:13:35.923Z,88.10
2023-03-29T05:14:39.559Z,88.20
2023-03-29T05:15:42.738Z,88.20
2023-03-29T05:16:46.550Z,88.20
2023-03-29T05:17:49.617Z,88.20
2023-03-29T05:18:55.384Z,88.20
2023-03-29T05:19:58.503Z,88.20
2023-03-29T05:21:05.372Z,88.20
2023-03-29T05:22:10.902Z,87.20
2023-03-29T05:23:13.453Z,87.80
2023-03-29T05:24:55.247Z,87.60
2023-03-29T05:25:58.919Z,88.00
2023-03-29T05:27:02.778Z,88.10
2023-03-29T05:28:08.564Z,88.00
2023-03-29T05:29:12.576Z,88.10
2023-03-29T05:30:16.532Z,88.20
2023-03-29T05:31:37.893Z,87.80
2023-03-29T05:32:40.674Z,87.80
2023-03-29T05:33:45.948Z,88.00
2023-03-29T05:34:48.717Z,87.80
2023-03-29T05:36:00.993Z,87.80
2023-03-29T05:37:06.481Z,87.90
2023-03-29T05:38:22.353Z,88.00
2023-03-29T05:39:26.837Z,88.10
2023-03-29T05:40:31.445Z,88.10
2023-03-29T05:42:05.579Z,87.80
2023-03-29T05:43:19.186Z,88.00
2023-03-29T05:44:22.579Z,88.10
2023-03-29T05:45:32.565Z,87.70
2023-03-29T05:46:36.434Z,87.60
2023-03-29T05:47:39.727Z,87.80
2023-03-29T05:48:43.593Z,87.40
2023-03-29T05:49:46.325Z,87.80
2023-03-29T05:50:54.980Z,88.10
2023-03-29T05:51:57.543Z,88.20
2023-03-29T05:53:03.700Z,88.20
2023-03-29T05:54:07.395Z,87.80
2023-03-29T05:55:11.801Z,88.10
2023-03-29T05:56:16.699Z,88.20
2023-03-29T05:57:19.661Z,88.10
2023-03-29T05:58:23.422Z,87.70
2023-03-29T05:59:28.517Z,87.70
2023-03-29T06:00:34.463Z,88.00
2023-03-29T06:01:52.032Z,88.20
2023-03-29T06:03:03.701Z,88.20
2023-03-29T06:04:13.418Z,88.20
2023-03-29T06:05:25.995Z,88.20
2023-03-29T06:06:37.070Z,87.90
2023-03-29T06:07:40.313Z,87.50
2023-03-29T06:09:01.461Z,87.70
2023-03-29T06:10:24.849Z,88.00
2023-03-29T06:11:35.995Z,88.10
2023-03-29T06:12:49.649Z,88.00
2023-03-29T06:13:54.098Z,88.20
2023-03-29T06:14:58.309Z,88.10
2023-03-29T06:16:10.448Z,87.90
2023-03-29T06:17:13.677Z,87.30
2023-03-29T06:18:17.217Z,87.50
2023-03-29T06:19:19.823Z,87.70
2023-03-29T06:20:23.980Z,86.90
2023-03-29T06:21:33.976Z,86.50
2023-03-29T06:22:38.071Z,87.80
2023-03-29T06:23:41.917Z,88.00
2023-03-29T06:24:46.264Z,87.90
2023-03-29T06:26:00.202Z,87.60
2023-03-29T06:27:03.083Z,87.40
2023-03-29T06:28:07.559Z,87.70
2023-03-29T06:29:11.017Z,88.00
2023-03-29T06:30:19.005Z,88.00
2023-03-29T06:31:26.946Z,87.70
2023-03-29T06:32:29.789Z,88.10
2023-03-29T06:33:45.832Z,88.00
2023-03-29T06:35:05.012Z,88.30
2023-03-29T06:36:16.953Z,88.30
2023-03-29T06:37:20.079Z,87.60
2023-03-29T06:38:28.691Z,88.20
2023-03-29T06:39:32.977Z,88.20
2023-03-29T06:41:05.175Z,88.50
2023-03-29T06:42:32.485Z,88.40
2023-03-29T06:43:53.676Z,88.40
2023-03-29T06:44:59.284Z,88.50
2023-03-29T06:46:02.969Z,88.70
2023-03-29T06:47:22.153Z,88.80
2023-03-29T06:48:24.981Z,88.80
2023-03-29T06:49:28.801Z,88.80
2023-03-29T06:50:54.528Z,88.80
2023-03-29T06:52:01.562Z,88.70
2023-03-29T06:53:04.725Z,88.70
2023-03-29T06:54:09.113Z,88.50
2023-03-29T06:55:14.452Z,88.50
2023-03-29T06:56:19.579Z,88.50
2023-03-29T06:57:30.891Z,88.60
2023-03-29T06:58:34.507Z,88.40
2023-03-29T06:59:44.982Z,88.50
2023-03-29T07:01:04.741Z,88.60
2023-03-29T07:02:20.500Z,88.50
2023-03-29T07:03:30.103Z,88.40
2023-03-29T07:04:35.259Z,88.00
2023-03-29T07:06:01.301Z,88.10
2023-03-29T07:07:06.075Z,88.30
2023-03-29T07:08:16.608Z,88.50
2023-03-29T07:09:36.937Z,88.40
2023-03-29T07:11:20.664Z,88.30
2023-03-29T07:12:28.581Z,88.00
2023-03-29T07:13:36.102Z,88.00
2023-03-29T07:14:42.240Z,88.40
2023-03-29T07:15:47.061Z,88.10
2023-03-29T07:17:10.221Z,88.30
2023-03-29T07:18:18.490Z,88.20
2023-03-29T07:19:24.289Z,88.10
2023-03-29T07:20:28.248Z,87.90
2023-03-29T07:21:41.281Z,88.20
2023-03-29T07:22:47.130Z,88.10
2023-03-29T07:23:52.218Z,88.30
2023-03-29T07:24:55.301Z,88.30
2023-03-29T07:25:58.779Z,88.50
2023-03-29T07:27:04.912Z,88.30
2023-03-29T07:28:11.239Z,88.10
2023-03-29T07:29:14.185Z,88.30
2023-03-29T07:30:21.753Z,88.30
2023-03-29T07:31:25.663Z,88.50
2023-03-29T07:32:36.534Z,87.90
2023-03-29T07:34:11.510Z,88.30
2023-03-29T07:35:17.464Z,88.00
2023-03-29T07:36:21.336Z,88.10
2023-03-29T07:37:24.868Z,88.10
2023-03-29T07:38:30.138Z,88.00
2023-03-29T07:39:38.037Z,88.00
2023-03-29T07:41:06.214Z,87.80
2023-03-29T07:42:28.918Z,87.90
2023-03-29T07:43:34.235Z,87.80
2023-03-29T07:44:37.712Z,87.40
2023-03-29T07:45:42.405Z,87.80
2023-03-29T07:46:48.398Z,87.70
2023-03-29T07:47:57.087Z,87.50
2023-03-29T07:49:00.853Z,87.80
2023-03-29T07:50:04.830Z,87.80
2023-03-29T07:51:09.238Z,87.80
2023-03-29T07:52:19.891Z,87.10
2023-03-29T07:53:23.048Z,87.30
2023-03-29T07:54:27.648Z,87.40
2023-03-29T07:55:50.089Z,87.60
2023-03-29T07:57:13.607Z,87.40
2023-03-29T07:58:22.572Z,87.50
2023-03-29T07:59:25.180Z,87.50
2023-03-29T08:01:00.429Z,87.50
2023-03-29T08:02:24.289Z,87.50
2023-03-29T08:03:33.685Z,87.30
2023-03-29T08:04:36.262Z,87.20
2023-03-29T08:06:01.547Z,87.20
2023-03-29T08:07:05.890Z,87.30
2023-03-29T08:08:38.557Z,87.50
2023-03-29T08:09:47.533Z,87.30
2023-03-29T08:10:52.035Z,87.20
2023-03-29T08:12:23.790Z,87.20
2023-03-29T08:13:29.880Z,87.60
2023-03-29T08:14:52.063Z,86.60
2023-03-29T08:16:01.694Z,87.40
2023-03-29T08:17:09.367Z,87.40
2023-03-29T08:18:18.085Z,87.40
2023-03-29T08:19:20.619Z,87.10
2023-03-29T08:20:30.214Z,87.00
2023-03-29T08:21:38.594Z,87.20
2023-03-29T08:22:42.392Z,87.30
2023-03-29T08:24:00.727Z,87.20
2023-03-29T08:25:13.934Z,87.50
2023-03-29T08:26:24.415Z,87.30
2023-03-29T08:27:27.203Z,87.30
2023-03-29T08:28:33.605Z,87.40
2023-03-29T08:29:36.350Z,87.40
2023-03-29T08:30:39.874Z,87.40
2023-03-29T08:31:42.932Z,87.40
2023-03-29T08:32:49.321Z,86.90
2023-03-29T08:33:55.208Z,86.90
2023-03-29T08:35:19.183Z,87.00
2023-03-29T08:36:34.557Z,86.60
2023-03-29T08:37:45.970Z,86.60
2023-03-29T08:38:51.712Z,86.70
2023-03-29T08:39:55.447Z,86.70
2023-03-29T08:41:30.063Z,86.70
2023-03-29T08:43:02.892Z,86.70
2023-03-29T08:44:42.956Z,86.10
2023-03-29T08:46:04.282Z,86.00
2023-03-29T08:47:18.428Z,86.30
2023-03-29T08:48:30.020Z,86.40
2023-03-29T08:49:34.854Z,86.30
2023-03-29T08:50:48.017Z,86.10
2023-03-29T08:51:58.027Z,86.20
2023-03-29T08:53:04.938Z,86.00
2023-03-29T08:54:38.401Z,86.20
2023-03-29T08:55:50.047Z,86.30
2023-03-29T08:57:18.294Z,86.20
2023-03-29T08:58:33.431Z,86.10
2023-03-29T08:59:41.093Z,85.90
2023-03-29T09:00:50.854Z,86.00
2023-03-29T09:01:57.506Z,86.10
2023-03-29T09:03:02.855Z,86.20
2023-03-29T09:04:11.377Z,86.10
2023-03-29T09:05:38.791Z,86.20
2023-03-29T09:06:57.872Z,86.50
2023-03-29T09:08:13.435Z,86.50
2023-03-29T09:09:21.840Z,86.10
2023-03-29T09:10:40.853Z,86.10
2023-03-29T09:12:01.726Z,86.10
2023-03-29T09:13:22.385Z,86.10
2023-03-29T09:14:56.860Z,86.20
2023-03-29T09:16:08.298Z,86.00
2023-03-29T09:17:30.279Z,86.10
2023-03-29T09:18:47.462Z,86.30
2023-03-29T09:20:02.676Z,86.20
2023-03-29T09:21:17.677Z,86.10
2023-03-29T09:22:31.989Z,86.10
2023-03-29T09:23:55.769Z,86.00
2023-03-29T09:25:36.338Z,86.00
2023-03-29T09:26:54.664Z,85.90
2023-03-29T09:28:19.214Z,85.90
2023-03-29T09:29:48.834Z,85.90
2023-03-29T09:31:05.162Z,85.90
2023-03-29T09:32:19.739Z,86.00
2023-03-29T09:33:29.563Z,86.00
2023-03-29T09:35:04.553Z,86.10
2023-03-29T09:36:13.185Z,86.10
2023-03-29T09:37:26.779Z,86.30
2023-03-29T09:38:36.090Z,86.40
2023-03-29T09:39:41.102Z,86.20
2023-03-29T09:40:53.935Z,86.30
2023-03-29T09:42:04.223Z,85.90
2023-03-29T09:43:13.678Z,85.90
2023-03-29T09:44:30.753Z,85.60
2023-03-29T09:45:41.316Z,85.70
2023-03-29T09:46:49.225Z,85.80
2023-03-29T09:47:58.171Z,86.00
2023-03-29T09:49:06.338Z,85.80
2023-03-29T09:50:29.651Z,85.60
2023-03-29T09:51:36.245Z,85.70
2023-03-29T09:52:38.933Z,85.30
2023-03-29T09:53:50.265Z,85.30
2023-03-29T09:55:08.195Z,85.10
2023-03-29T09:56:32.826Z,84.60
2023-03-29T09:57:44.890Z,84.70
2023-03-29T09:58:49.521Z,84.90
2023-03-29T09:59:56.015Z,84.80
2023-03-29T10:01:04.019Z,85.00
2023-03-29T10:02:12.802Z,85.00
2023-03-29T10:03:19.663Z,84.70
2023-03-29T10:04:28.220Z,84.60
2023-03-29T10:05:37.917Z,84.50
2023-03-29T10:06:50.692Z,84.50
2023-03-29T10:07:57.962Z,84.60
2023-03-29T10:09:02.220Z,84.60
2023-03-29T10:10:11.101Z,84.70
2023-03-29T10:11:23.360Z,84.50
2023-03-29T10:12:27.109Z,84.50
2023-03-29T10:13:33.788Z,84.90
2023-03-29T10:14:39.572Z,85.00
2023-03-29T10:15:42.041Z,84.90
2023-03-29T10:16:47.648Z,84.70
2023-03-29T10:17:59.644Z,85.00
2023-03-29T10:19:23.340Z,85.10
2023-03-29T10:20:26.874Z,85.20
2023-03-29T10:21:33.092Z,85.20
2023-03-29T10:22:40.766Z,85.50
2023-03-29T10:23:45.096Z,85.60
2023-03-29T10:24:53.877Z,85.50
2023-03-29T10:25:56.553Z,85.20
2023-03-29T10:27:04.086Z,85.40
2023-03-29T10:28:12.402Z,85.10
2023-03-29T10:29:16.505Z,85.10
2023-03-29T10:30:27.203Z,84.80
2023-03-29T10:31:31.499Z,84.90
2023-03-29T10:32:38.480Z,84.70
2023-03-29T10:33:43.389Z,84.60
2023-03-29T10:34:48.526Z,84.50
2023-03-29T10:35:52.767Z,84.60
2023-03-29T10:37:01.149Z,84.60
2023-03-29T10:38:10.065Z,84.90
2023-03-29T10:39:17.167Z,85.00
2023-03-29T10:40:26.080Z,85.20
2023-03-29T10:41:30.768Z,85.40
2023-03-29T10:42:34.250Z,85.60
2023-03-29T10:43:38.974Z,85.70
2023-03-29T10:44:42.731Z,85.90
2023-03-29T10:45:49.528Z,85.40
2023-03-29T10:46:52.315Z,85.70
2023-03-29T10:47:57.973Z,85.70
2023-03-29T10:49:10.310Z,85.40
2023-03-29T10:50:16.554Z,85.70
2023-03-29T10:51:21.159Z,85.60
2023-03-29T10:52:23.601Z,85.60
2023-03-29T10:53:30.002Z,85.60
2023-03-29T10:54:33.655Z,85.70
2023-03-29T10:55:46.421Z,85.70
2023-03-29T10:56:54.160Z,85.40
2023-03-29T10:58:10.391Z,85.40
2023-03-29T10:59:28.696Z,85.40
2023-03-29T11:00:38.510Z,84.90
2023-03-29T11:01:51.682Z,84.60
2023-03-29T11:03:24.075Z,84.50
2023-03-29T11:04:43.858Z,84.80
2023-03-29T11:05:55.776Z,84.70
2023-03-29T11:07:32.082Z,84.90
2023-03-29T11:08:52.588Z,85.00
2023-03-29T11:10:15.870Z,84.70
2023-03-29T11:11:44.097Z,84.70
2023-03-29T11:12:57.533Z,84.90
2023-03-29T11:14:13.573Z,85.20
2023-03-29T11:15:37.861Z,85.40
2023-03-29T11:16:49.651Z,85.40
2023-03-29T11:18:10.066Z,85.70
2023-03-29T11:19:40.361Z,85.70
2023-03-29T11:20:49.891Z,85.90
2023-03-29T11:22:01.339Z,85.90
2023-03-29T11:23:22.549Z,85.90
2023-03-29T11:24:43.378Z,86.20
2023-03-29T11:26:00.732Z,86.40
2023-03-29T11:27:16.655Z,86.20
2023-03-29T11:28:32.186Z,86.30
2023-03-29T11:29:43.672Z,86.30
2023-03-29T11:30:56.482Z,86.50
2023-03-29T11:32:09.206Z,86.50
2023-03-29T11:33:31.896Z,86.80
2023-03-29T11:34:46.779Z,86.70
2023-03-29T11:35:59.303Z,86.30
2023-03-29T11:37:13.664Z,86.50
2023-03-29T11:38:26.635Z,86.80
2023-03-29T11:39:39.852Z,86.50
2023-03-29T11:40:56.547Z,86.50
2023-03-29T11:42:08.303Z,86.40
2023-03-29T11:43:19.068Z,86.40
2023-03-29T11:44:28.274Z,86.50
2023-03-29T11:45:37.525Z,86.30
2023-03-29T11:46:46.767Z,86.60
2023-03-29T11:47:50.884Z,86.20
2023-03-29T11:49:01.909Z,86.40
2023-03-29T11:50:17.509Z,86.20
2023-03-29T11:51:26.937Z,86.30
2023-03-29T11:52:34.816Z,86.20
2023-03-29T11:53:47.035Z,85.90
2023-03-29T11:54:57.358Z,85.90
2023-03-29T11:56:11.741Z,86.10
2023-03-29T11:57:23.310Z,86.10
2023-03-29T11:58:32.070Z,85.60
2023-03-29T11:59:40.464Z,85.40
2023-03-29T12:00:48.210Z,85.20
2023-03-29T12:01:56.536Z,85.60
2023-03-29T12:03:03.145Z,85.40
2023-03-29T12:04:14.322Z,85.70
2023-03-29T12:05:24.139Z,85.70
2023-03-29T12:06:33.972Z,84.80
2023-03-29T12:07:43.104Z,85.50
2023-03-29T12:08:51.139Z,85.70
2023-03-29T12:10:00.445Z,85.90
2023-03-29T12:11:07.951Z,85.90
2023-03-29T12:12:19.094Z,86.30
2023-03-29T12:13:28.856Z,86.00
2023-03-29T12:14:48.129Z,86.40
2023-03-29T12:16:00.961Z,86.60
2023-03-29T12:17:09.904Z,86.10
2023-03-29T12:18:21.270Z,86.60
2023-03-29T12:19:31.200Z,86.90
2023-03-29T12:20:40.125Z,86.90
2023-03-29T12:21:48.107Z,86.50
2023-03-29T12:22:54.660Z,87.10
2023-03-29T12:23:59.313Z,86.80
2023-03-29T12:25:06.439Z,87.00
2023-03-29T12:26:28.283Z,87.30
2023-03-29T12:27:36.680Z,87.70
2023-03-29T12:29:07.136Z,87.70
2023-03-29T12:30:34.398Z,87.80
2023-03-29T12:31:44.662Z,87.90
2023-03-29T12:33:09.586Z,87.90
2023-03-29T12:34:58.436Z,88.10
2023-03-29T12:36:45.130Z,88.30
2023-03-29T12:38:19.943Z,88.40
2023-03-29T12:39:42.181Z,88.30
2023-03-29T12:41:13.133Z,88.30
2023-03-29T12:42:35.664Z,88.20
2023-03-29T12:44:17.680Z,87.90
2023-03-29T12:45:37.930Z,87.70
2023-03-29T12:46:42.230Z,87.40
2023-03-29T12:47:47.429Z,87.50
2023-03-29T12:48:57.352Z,87.40
2023-03-29T12:50:01.731Z,87.50
2023-03-29T12:51:09.482Z,87.50
2023-03-29T12:52:27.135Z,87.70
2023-03-29T12:53:35.962Z,87.80
2023-03-29T12:54:38.547Z,87.80
2023-03-29T12:55:56.018Z,87.60
2023-03-29T12:57:19.637Z,87.20
2023-03-29T12:58:38.484Z,87.50
2023-03-29T12:59:47.385Z,86.90
2023-03-29T13:01:06.166Z,86.70
2023-03-29T13:02:37.003Z,87.10
2023-03-29T13:03:51.778Z,87.00
2023-03-29T13:04:57.403Z,87.10
2023-03-29T13:06:05.144Z,87.30
2023-03-29T13:07:17.120Z,87.30
2023-03-29T13:08:27.760Z,87.10
2023-03-29T13:09:35.481Z,87.30
2023-03-29T13:10:43.219Z,87.40
2023-03-29T13:11:53.260Z,87.40
2023-03-29T13:13:15.492Z,87.10
2023-03-29T13:14:21.161Z,87.10
2023-03-29T13:15:26.598Z,86.90
2023-03-29T13:16:35.937Z,87.00
2023-03-29T13:17:52.624Z,86.40
2023-03-29T13:19:23.067Z,86.50
2023-03-29T13:20:46.070Z,86.50
2023-03-29T13:22:06.012Z,86.40
2023-03-29T13:23:43.408Z,86.20
2023-03-29T13:25:18.030Z,85.90
2023-03-29T13:26:38.303Z,85.80
2023-03-29T13:27:49.102Z,85.50
2023-03-29T13:29:33.762Z,85.30
2023-03-29T13:30:50.795Z,85.00
2023-03-29T13:32:04.786Z,84.70
2023-03-29T13:33:29.010Z,84.50
2023-03-29T13:34:44.082Z,84.30
2023-03-29T13:35:56.747Z,84.40
2023-03-29T13:37:13.195Z,84.20
2023-03-29T13:38:22.735Z,84.30
2023-03-29T13:39:32.000Z,84.30
2023-03-29T13:40:48.043Z,84.40
2023-03-29T13:41:54.228Z,84.30
2023-03-29T13:42:59.964Z,84.40
2023-03-29T13:44:03.354Z,84.40
2023-03-29T13:45:16.714Z,84.20
2023-03-29T13:46:37.600Z,84.30
2023-03-29T13:47:58.666Z,84.20
2023-03-29T13:49:16.924Z,84.20
2023-03-29T13:50:35.723Z,84.10
2023-03-29T13:51:41.038Z,84.10
2023-03-29T13:52:57.902Z,84.10
2023-03-29T13:54:14.157Z,83.90
2023-03-29T13:55:23.685Z,83.70
2023-03-29T13:56:33.629Z,83.80
2023-03-29T13:57:42.345Z,83.60
2023-03-29T13:58:52.577Z,83.40
2023-03-29T14:00:01.778Z,83.40
2023-03-29T14:01:24.692Z,83.20
2023-03-29T14:02:37.860Z,83.10
2023-03-29T14:03:46.270Z,83.10
2023-03-29T14:04:53.527Z,83.00
2023-03-29T14:06:00.909Z,82.90
2023-03-29T14:07:05.066Z,82.90
2023-03-29T14:08:15.902Z,83.00
2023-03-29T14:09:22.648Z,82.80
2023-03-29T14:10:41.018Z,82.90
2023-03-29T14:11:47.544Z,82.90
2023-03-29T14:12:51.526Z,82.70
2023-03-29T14:13:55.621Z,82.60
2023-03-29T14:15:03.666Z,82.50
2023-03-29T14:16:11.953Z,82.30
2023-03-29T14:17:21.575Z,82.40
2023-03-29T14:18:28.800Z,82.50
2023-03-29T14:19:34.317Z,82.60
2023-03-29T14:20:38.998Z,82.70
2023-03-29T14:21:43.480Z,82.80
2023-03-29T14:22:47.497Z,82.80
2023-03-29T14:23:59.575Z,82.60
2023-03-29T14:25:13.357Z,82.60
2023-03-29T14:26:19.715Z,82.30
2023-03-29T14:27:22.801Z,82.40
2023-03-29T14:28:28.920Z,82.40
2023-03-29T14:29:32.840Z,82.40
2023-03-29T14:30:36.303Z,82.20
2023-03-29T14:31:42.725Z,82.00
2023-03-29T14:32:46.216Z,81.70
2023-03-29T14:33:54.393Z,81.50
2023-03-29T14:34:58.801Z,81.50
2023-03-29T14:36:04.998Z,81.50
2023-03-29T14:37:12.106Z,81.50
2023-03-29T14:38:16.597Z,81.60
2023-03-29T14:39:23.224Z,81.80
2023-03-29T14:40:28.761Z,81.90
2023-03-29T14:41:33.132Z,81.80
2023-03-29T14:42:39.503Z,81.80
2023-03-29T14:43:43.079Z,81.80
2023-03-29T14:44:45.735Z,81.70
2023-03-29T14:45:50.158Z,81.70
2023-03-29T14:46:53.314Z,81.70
2023-03-29T14:47:57.945Z,81.70
2023-03-29T14:49:02.308Z,81.70
2023-03-29T14:50:07.990Z,81.60
2023-03-29T14:51:11.772Z,81.60
2023-03-29T14:52:14.959Z,81.50
2023-03-29T14:53:21.842Z,81.50
2023-03-29T14:54:27.921Z,81.30
2023-03-29T14:55:33.577Z,81.50
2023-03-29T14:56:37.471Z,81.60
2023-03-29T14:57:40.221Z,81.50
2023-03-29T14:58:47.619Z,81.50
2023-03-29T14:59:58.167Z,81.40
2023-03-29T15:01:07.821Z,81.30
2023-03-29T15:02:26.236Z,81.40
2023-03-29T15:03:29.854Z,81.40
2023-03-29T15:04:34.205Z,81.40
2023-03-29T15:05:41.224Z,81.30